This is the latest recevied weather packets stored in our database for station/object AJ1L. If no packets are shown the sender has not sent any weather packets the latest 10 day(s).
| Time | Temp. | Humidity | Pressure | Rain* | Wind** | Luminosity | Snow |
|---|---|---|---|---|---|---|---|
| 1777488639 | 10° C | 81% | 1015 hPa | 0 mm | - | - | - |
| 1777487638 | 10° C | 80% | 1014.9 hPa | 0 mm | - | - | - |
| 1777485639 | 10.56° C | 79% | 1015.1 hPa | 0 mm | - | - | - |
| 1777484638 | 10.56° C | 78% | 1014.9 hPa | 0 mm | - | - | - |
| 1777483638 | 11.11° C | 76% | 1015.2 hPa | 0 mm | - | - | - |
| 1777482639 | 11.11° C | 77% | 1015 hPa | 0 mm | - | - | - |
| 1777481638 | 11.11° C | 77% | 1015.1 hPa | 0 mm | - | - | - |
| 1777480638 | 11.11° C | 77% | 1015 hPa | 0 mm | - | - | - |
| 1777479639 | 11.11° C | 77% | 1014.9 hPa | 0 mm | - | - | - |
| 1777478638 | 11.11° C | 77% | 1015.1 hPa | 0 mm | - | - | - |
| 1777477638 | 11.11° C | 79% | 1015.6 hPa | 0 mm | - | - | - |
| 1777476638 | 10° C | 80% | 1015.8 hPa | 0 mm | - | - | - |
| 1777475638 | 9.44° C | 84% | 1016.3 hPa | 0 mm | - | - | - |
| 1777474638 | 8.89° C | 84% | 1016.9 hPa | 0 mm | - | - | - |
| 1777473638 | 8.89° C | 86% | 1017.2 hPa | 0 mm | - | - | - |
| 1777472638 | 8.33° C | 88% | 1017 hPa | 0 mm | - | - | - |
| 1777471638 | 7.78° C | 90% | 1017.2 hPa | 0 mm | - | - | - |
| 1777470639 | 7.78° C | 91% | 1017.3 hPa | 0 mm | - | - | - |
| 1777469638 | 7.78° C | 92% | 1017.4 hPa | 0 mm | - | - | - |
| 1777468638 | 7.22° C | 93% | 1017.8 hPa | 0 mm | - | - | - |
| 1777467638 | 7.22° C | 93% | 1017.7 hPa | 0 mm | - | - | - |
| 1777466638 | 7.22° C | 93% | 1017.6 hPa | 0 mm | - | - | - |
| 1777464638 | 7.22° C | 93% | 1017.8 hPa | 0 mm | - | - | - |
| 1777461638 | 6.67° C | 92% | 1017.4 hPa | 0 mm | - | - | - |
| 1777459638 | 6.67° C | 92% | 1017.3 hPa | 0 mm | - | - | - |
* Rain latest hour (hover to see other rain measurements)
** Current wind speed in m/s (hover to see current wind gust speed)